Schnecksville, Pennsylvania
Current Conditions -  °F | °C
As of 12:51 AM on Sunday 21 Dec 2014 (Local Time) from KABE Reporting Station
Overcast Overcast  
Wind Chill: 31°   Ceiling: 3000
Heat Index: 31°   Visibility: 10mi
Dew Point: 22°   Wind: 0mph
Humidity: 69%   Direction: NA
Pressure: 30.27"   Gusts: NA
Location:  40.68°N, 75.62°W
Report Text: KABE 210551Z 00000KT 10SM OVC030 M01/M06 A3027 RMK AO2 SLP256 T10061056 10006 21011 58002
Loading
Personal Weather Stations






























Interactive Weather Map New forecast layout! Learn more

10-Day Weather Forecast

Advertisements
Track Severe Weather on mobile